Weather at Moonbow Field

Public forecast

Using degrees Fahrenheit for public forecast. Weather courtesy of forecast.io.

Closest aviation weather report (METAR) to Moonbow Field

Closest report is Mid-Way Regional Airport, 3.7 nm (6.9 km) WSW. Retrieved 2022/08/16 18:35 UTC (0 seconds ago):

KJWY 161835Z AUTO 19011G15KT 10SM SCT095 SCT120 37/18 A2996 RMK AO2 T03680178

Closest aviation forecast (TAF) to Moonbow Field

Closest forecast is Arlington Municipal Airport, 16.5 nm (30.5 km) NW. Retrieved 2022/08/16 18:33 UTC (1 minute ago):

TAF KGKY 161730Z 1618/1718 23006KT P6SM BKN250 FM171300 25007KT P6SM FEW180 FM171700 32010KT P6SM FEW070 BKN100